Time;durP1;ratioP1;P1;durP2;ratioP2;P2;SDS_P1;SDS_P2;PMS_P1;PMS_P2;Temp;Humidity;BMP_temperature;BMP_pressure;BME280_temperature;BME280_humidity;BME280_pressure;Samples;Min_cycle;Max_cycle;Signal;HPM_P1;HPM_P2
2022/06/21 00:02:19;;;;;;;14.38;3.40;;;12.70;99.90;;;;;;5069854;28;20333;-81
2022/06/21 00:04:45;;;;;;;11.18;3.17;;;12.70;99.90;;;;;;5073065;28;20521;-80
2022/06/21 00:07:23;;;;;;;10.82;3.03;;;12.70;99.90;;;;;;5072829;28;20174;-81
2022/06/21 00:09:49;;;;;;;9.98;3.17;;;12.60;99.90;;;;;;5064642;28;20025;-81
2022/06/21 00:12:15;;;;;;;8.93;2.80;;;12.60;99.90;;;;;;5074016;28;20055;-81
2022/06/21 00:14:41;;;;;;;11.93;3.42;;;12.60;99.90;;;;;;5085341;28;20024;-81
2022/06/21 00:17:21;;;;;;;6.70;2.90;;;12.50;99.90;;;;;;5073079;28;20028;-81
2022/06/21 00:19:48;;;;;;;7.55;2.78;;;12.50;99.90;;;;;;5073382;28;20647;-81
2022/06/21 00:22:17;;;;;;;9.98;3.13;;;12.50;99.90;;;;;;5073458;28;20025;-80
2022/06/21 00:24:43;;;;;;;9.30;2.90;;;12.50;99.90;;;;;;5072501;28;20066;-81
2022/06/21 00:27:20;;;;;;;9.70;2.88;;;12.40;99.90;;;;;;5073398;28;20497;-81
2022/06/21 00:29:46;;;;;;;10.00;3.42;;;12.40;99.90;;;;;;5069652;28;20485;-80
2022/06/21 00:32:18;;;;;;;11.15;3.47;;;12.40;99.90;;;;;;5070937;28;20055;-80
2022/06/21 00:34:44;;;;;;;6.25;2.90;;;12.40;99.90;;;;;;5067997;28;20036;-80
2022/06/21 00:37:22;;;;;;;10.07;3.42;;;12.40;99.90;;;;;;5062933;28;20032;-80
2022/06/21 00:39:48;;;;;;;9.77;3.33;;;12.40;99.90;;;;;;5072157;28;20468;-80
2022/06/21 00:42:25;;;;;;;8.48;3.40;;;12.40;99.90;;;;;;5070623;28;20032;-80
2022/06/21 00:45:03;;;;;;;12.27;2.58;;;12.40;99.90;;;;;;5072702;28;20024;-80
2022/06/21 00:47:36;;;;;;;11.25;2.78;;;12.40;99.90;;;;;;5067255;28;20469;-80
2022/06/21 00:50:27;;;;;;;12.75;2.97;;;12.40;99.90;;;;;;5068544;28;20360;-80
2022/06/21 00:53:03;;;;;;;8.82;2.97;;;12.40;99.90;;;;;;5069961;28;20100;-80
2022/06/21 00:55:47;;;;;;;10.50;3.13;;;12.40;99.90;;;;;;5069320;28;20021;-80
2022/06/21 00:58:15;;;;;;;10.23;3.13;;;12.30;99.90;;;;;;5068954;28;20028;-80
2022/06/21 01:00:56;;;;;;;10.20;3.97;;;12.30;99.90;;;;;;5071912;28;20024;-80
2022/06/21 01:03:26;;;;;;;9.65;3.35;;;12.30;99.90;;;;;;5058843;28;20022;-81
2022/06/21 01:05:55;;;;;;;12.98;3.30;;;12.30;99.90;;;;;;5071371;28;20412;-80
2022/06/21 01:08:26;;;;;;;9.13;3.00;;;12.20;99.90;;;;;;5067412;28;20131;-81
2022/06/21 01:10:57;;;;;;;13.23;3.83;;;12.30;99.90;;;;;;5061826;28;20036;-81
2022/06/21 01:13:29;;;;;;;12.68;4.25;;;12.20;99.90;;;;;;5070853;28;20020;-80
2022/06/21 01:15:56;;;;;;;20.42;3.95;;;12.30;99.90;;;;;;5069632;28;20040;-81
2022/06/21 01:18:24;;;;;;;14.05;3.45;;;12.30;99.90;;;;;;5072526;28;20021;-80
2022/06/21 01:20:58;;;;;;;12.23;4.75;;;12.30;99.90;;;;;;5071453;28;20028;-80
2022/06/21 01:23:33;;;;;;;16.45;3.60;;;12.30;99.90;;;;;;5070801;28;20027;-80
2022/06/21 01:26:36;;;;;;;10.18;4.35;;;12.30;99.90;;;;;;5070987;28;20020;-81
2022/06/21 01:29:05;;;;;;;14.77;3.63;;;12.30;99.90;;;;;;5070326;28;20035;-80
2022/06/21 01:31:32;;;;;;;12.68;3.50;;;12.20;99.90;;;;;;5072129;28;20032;-80
2022/06/21 01:33:58;;;;;;;12.45;3.78;;;12.20;99.90;;;;;;5065744;28;20047;-80
2022/06/21 01:36:32;;;;;;;15.70;4.05;;;12.20;99.90;;;;;;5070683;28;20024;-80
2022/06/21 01:39:05;;;;;;;9.60;3.63;;;12.30;99.90;;;;;;5069814;28;20070;-80
2022/06/21 01:41:39;;;;;;;11.63;3.55;;;12.30;99.90;;;;;;5062374;28;20024;-81
2022/06/21 01:44:10;;;;;;;13.05;3.47;;;12.20;99.90;;;;;;5060269;28;20512;-81
2022/06/21 01:46:35;;;;;;;11.25;3.50;;;12.30;99.90;;;;;;5070364;28;20025;-80
2022/06/21 01:49:12;;;;;;;12.32;3.55;;;12.20;99.90;;;;;;5071216;28;20025;-80
2022/06/21 01:51:45;;;;;;;15.55;3.75;;;12.20;99.90;;;;;;5060691;28;20029;-81
2022/06/21 01:54:14;;;;;;;9.93;3.47;;;12.20;99.90;;;;;;5072169;28;20028;-80
2022/06/21 01:56:41;;;;;;;9.95;3.45;;;12.20;99.90;;;;;;5071088;28;20028;-80
2022/06/21 01:59:19;;;;;;;14.23;3.92;;;12.10;99.90;;;;;;5071671;28;20032;-81
2022/06/21 02:02:22;;;;;;;7.18;3.10;;;12.10;99.90;;;;;;5053750;28;20032;-81
2022/06/21 02:05:01;;;;;;;12.35;3.30;;;12.10;99.90;;;;;;5047765;28;20044;-80
2022/06/21 02:07:38;;;;;;;14.25;3.40;;;12.10;99.90;;;;;;5070222;28;20041;-80
2022/06/21 02:10:07;;;;;;;13.02;3.40;;;12.00;99.90;;;;;;5065477;28;20029;-81
2022/06/21 02:12:35;;;;;;;21.00;4.07;;;12.00;99.90;;;;;;5068963;28;20391;-80
2022/06/21 02:15:05;;;;;;;20.42;4.28;;;12.00;99.90;;;;;;5068494;28;20116;-80
2022/06/21 02:17:41;;;;;;;9.35;3.22;;;12.00;99.90;;;;;;5071709;28;20385;-81
2022/06/21 02:20:24;;;;;;;13.40;3.53;;;12.00;99.90;;;;;;5067446;28;20415;-81
2022/06/21 02:22:51;;;;;;;12.32;3.78;;;12.00;99.90;;;;;;5067890;28;20039;-80
2022/06/21 02:25:22;;;;;;;12.50;4.15;;;12.00;99.90;;;;;;5068958;28;20191;-80
2022/06/21 02:27:52;;;;;;;14.70;4.25;;;12.00;99.90;;;;;;5070000;28;20500;-80
2022/06/21 02:30:21;;;;;;;15.88;4.22;;;12.00;99.90;;;;;;5071359;28;20023;-80
2022/06/21 02:32:49;;;;;;;26.02;4.57;;;12.00;99.90;;;;;;5069779;28;20472;-80
2022/06/21 02:35:46;;;;;;;25.25;4.93;;;12.00;99.90;;;;;;5068319;28;20028;-80
2022/06/21 02:38:20;;;;;;;20.55;4.53;;;12.00;99.90;;;;;;5057803;28;20058;-80
2022/06/21 02:40:55;;;;;;;15.57;3.85;;;12.00;99.90;;;;;;5072206;28;20021;-81
2022/06/21 02:43:27;;;;;;;11.82;3.78;;;12.00;99.90;;;;;;5055292;28;20167;-80
2022/06/21 02:46:12;;;;;;;18.17;4.93;;;12.00;99.90;;;;;;5058165;28;20384;-80
2022/06/21 02:48:45;;;;;;;9.73;3.38;;;12.00;99.90;;;;;;5070262;28;20078;-80
2022/06/21 02:51:18;;;;;;;13.20;3.65;;;11.90;99.90;;;;;;5073305;28;20038;-80
2022/06/21 02:54:04;;;;;;;17.63;4.10;;;11.90;99.90;;;;;;5073997;28;20035;-80
2022/06/21 02:56:41;;;;;;;6.63;2.90;;;11.90;99.90;;;;;;5067601;28;20384;-80
2022/06/21 02:59:08;;;;;;;19.42;4.35;;;11.90;99.90;;;;;;5075191;28;20032;-80
2022/06/21 03:01:57;;;;;;;12.10;3.30;;;11.90;99.90;;;;;;5073059;28;20422;-80
2022/06/21 03:04:35;;;;;;;23.90;4.47;;;11.90;99.90;;;;;;5073531;28;20356;-80
2022/06/21 03:07:03;;;;;;;18.58;4.20;;;11.90;99.90;;;;;;5073621;28;20048;-81
2022/06/21 03:09:30;;;;;;;16.80;4.07;;;11.90;99.90;;;;;;5072581;28;20029;-81
2022/06/21 03:12:00;;;;;;;16.65;3.90;;;11.90;99.90;;;;;;5073008;28;20025;-81
2022/06/21 03:14:29;;;;;;;19.75;3.85;;;11.90;99.90;;;;;;5068090;28;20115;-81
2022/06/21 03:16:57;;;;;;;12.20;3.58;;;12.00;99.90;;;;;;5075134;28;20028;-80
2022/06/21 03:19:31;;;;;;;13.05;3.50;;;12.00;99.90;;;;;;5074231;28;20017;-81
2022/06/21 03:21:57;;;;;;;24.30;4.50;;;12.00;99.90;;;;;;5067638;28;20025;-81
2022/06/21 03:24:26;;;;;;;14.73;2.90;;;12.00;99.90;;;;;;5065271;28;20047;-80
2022/06/21 03:27:14;;;;;;;17.00;4.05;;;12.10;99.90;;;;;;5067938;28;20036;-81
2022/06/21 03:29:39;;;;;;;11.55;3.20;;;12.00;99.90;;;;;;5073498;28;20123;-81
2022/06/21 03:32:05;;;;;;;19.27;3.38;;;12.00;99.90;;;;;;5072478;28;20108;-80
2022/06/21 03:34:32;;;;;;;16.15;3.38;;;12.10;99.90;;;;;;5074811;28;20461;-80
2022/06/21 03:37:00;;;;;;;14.50;2.63;;;12.10;99.90;;;;;;5072319;28;20028;-80
2022/06/21 03:42:16;;;;;;;13.32;3.10;;;12.10;99.90;;;;;;5068355;28;20130;-81
2022/06/21 03:44:53;;;;;;;18.58;3.83;;;12.10;99.90;;;;;;5063104;28;20036;-80
2022/06/21 03:47:25;;;;;;;22.33;3.33;;;12.00;99.90;;;;;;5067652;28;20024;-80
2022/06/21 03:49:57;;;;;;;11.43;3.17;;;12.10;99.90;;;;;;5069894;28;20043;-80
2022/06/21 03:52:41;;;;;;;15.02;3.78;;;12.10;99.90;;;;;;5066274;28;20025;-80
2022/06/21 03:55:28;;;;;;;12.38;3.13;;;12.10;99.90;;;;;;5054933;28;20067;-80
2022/06/21 03:58:28;;;;;;;13.50;3.60;;;12.10;99.90;;;;;;5074537;28;20971;-80
2022/06/21 04:01:14;;;;;;;17.55;3.38;;;12.00;99.90;;;;;;5067377;28;20042;-80
2022/06/21 04:03:56;;;;;;;15.32;3.30;;;12.10;99.90;;;;;;5061178;28;20459;-81
2022/06/21 04:06:34;;;;;;;19.42;3.40;;;12.10;99.90;;;;;;5065819;28;20055;-80
2022/06/21 04:09:36;;;;;;;17.25;3.63;;;12.10;99.90;;;;;;5065509;28;20107;-80
2022/06/21 04:12:09;;;;;;;16.52;4.43;;;12.10;99.90;;;;;;5068460;28;20021;-80
2022/06/21 04:14:56;;;;;;;20.63;3.55;;;12.10;99.90;;;;;;5069684;28;20124;-80
2022/06/21 04:17:36;;;;;;;16.90;3.60;;;12.10;99.90;;;;;;5066299;28;20036;-80
2022/06/21 04:20:09;;;;;;;16.88;3.92;;;12.10;99.90;;;;;;5069491;28;20059;-80
2022/06/21 04:22:43;;;;;;;10.95;2.75;;;12.20;99.90;;;;;;5069987;28;20047;-80
2022/06/21 04:25:31;;;;;;;19.38;3.83;;;12.20;99.90;;;;;;5064677;28;20024;-80
2022/06/21 04:28:10;;;;;;;14.13;3.50;;;12.20;99.90;;;;;;5068383;28;20024;-80
2022/06/21 04:31:07;;;;;;;15.73;3.10;;;12.30;99.90;;;;;;5072900;28;20017;-80
2022/06/21 04:33:58;;;;;;;19.80;3.42;;;12.30;99.90;;;;;;5072128;28;20068;-80
2022/06/21 04:36:35;;;;;;;18.20;4.15;;;12.30;99.90;;;;;;5053617;28;20028;-80
2022/06/21 04:39:21;;;;;;;24.30;4.20;;;12.40;99.90;;;;;;5068010;28;20060;-80
2022/06/21 04:41:56;;;;;;;18.75;4.03;;;12.40;99.90;;;;;;5071669;28;20024;-80
2022/06/21 04:44:37;;;;;;;16.38;3.40;;;12.40;99.90;;;;;;5072087;28;20046;-80
2022/06/21 04:47:12;;;;;;;18.15;2.92;;;12.40;99.90;;;;;;5070401;28;20503;-80
2022/06/21 04:49:43;;;;;;;22.38;3.90;;;12.40;99.90;;;;;;5059740;28;20406;-80
2022/06/21 04:52:20;;;;;;;18.88;3.30;;;12.40;99.90;;;;;;5071724;28;20491;-80
2022/06/21 04:54:45;;;;;;;22.42;3.53;;;12.50;99.90;;;;;;5072044;28;20023;-80
2022/06/21 04:57:18;;;;;;;14.43;3.00;;;12.50;99.90;;;;;;5070968;28;20029;-80
2022/06/21 04:59:48;;;;;;;23.05;3.60;;;12.60;99.90;;;;;;5070930;28;20070;-80
2022/06/21 05:02:27;;;;;;;13.73;2.80;;;12.60;99.90;;;;;;5068583;28;20457;-80
2022/06/21 05:05:09;;;;;;;16.67;3.22;;;12.60;99.90;;;;;;5067531;28;20040;-80
2022/06/21 05:07:47;;;;;;;21.95;3.33;;;12.60;99.90;;;;;;5070979;28;20132;-80
2022/06/21 05:10:21;;;;;;;18.48;2.83;;;12.60;99.90;;;;;;5061689;28;20050;-80
2022/06/21 05:12:48;;;;;;;15.57;3.15;;;12.60;99.90;;;;;;5070237;28;20066;-80
2022/06/21 05:15:32;;;;;;;20.73;5.53;;;12.60;99.90;;;;;;5070987;28;20027;-80
2022/06/21 05:18:00;;;;;;;19.80;3.22;;;12.70;99.90;;;;;;5063324;28;20028;-80
2022/06/21 05:20:32;;;;;;;22.58;3.65;;;12.70;99.90;;;;;;5069320;28;20025;-80
2022/06/21 05:23:01;;;;;;;18.20;4.18;;;12.70;99.90;;;;;;5063484;28;20028;-80
2022/06/21 05:25:41;;;;;;;19.40;3.83;;;12.80;99.90;;;;;;5068604;28;20029;-80
2022/06/21 05:28:19;;;;;;;36.50;4.55;;;12.90;99.90;;;;;;5066046;28;20036;-80
2022/06/21 05:30:51;;;;;;;12.05;3.40;;;13.00;99.90;;;;;;5061113;28;20051;-80
2022/06/21 05:33:48;;;;;;;16.67;3.55;;;12.90;99.90;;;;;;5085771;28;20020;-80
2022/06/21 05:36:21;;;;;;;22.60;3.92;;;12.80;99.90;;;;;;5063133;28;20032;-80
2022/06/21 05:38:51;;;;;;;13.80;4.47;;;12.80;99.90;;;;;;5070369;28;20048;-80
2022/06/21 05:41:44;;;;;;;14.98;4.55;;;12.80;99.90;;;;;;5070706;28;20029;-80
2022/06/21 05:44:13;;;;;;;8.88;3.20;;;12.80;99.90;;;;;;5064045;28;20036;-80
2022/06/21 05:46:54;;;;;;;21.58;3.85;;;12.80;99.90;;;;;;5070085;28;20590;-80
2022/06/21 05:49:40;;;;;;;21.27;3.60;;;12.80;99.90;;;;;;5055754;28;20033;-80
2022/06/21 05:52:11;;;;;;;19.38;4.30;;;12.90;99.90;;;;;;5068369;28;20036;-80
2022/06/21 05:54:46;;;;;;;15.77;3.95;;;13.00;99.90;;;;;;5064079;28;20074;-80
2022/06/21 05:57:14;;;;;;;;;;;13.10;99.90;;;;;;5062851;28;20453;-80
2022/06/21 05:59:41;;;;;;;23.60;3.90;;;13.10;99.90;;;;;;5068792;28;19913;-80
2022/06/21 06:02:13;;;;;;;14.10;3.13;;;13.10;99.90;;;;;;5072413;28;20036;-80
2022/06/21 06:04:50;;;;;;;19.60;3.55;;;13.20;99.90;;;;;;5071887;28;20029;-80
2022/06/21 06:07:40;;;;;;;16.67;3.47;;;13.20;99.90;;;;;;5061899;28;20083;-80
2022/06/21 06:10:07;;;;;;;29.67;4.65;;;13.30;99.90;;;;;;5069882;28;20078;-80
2022/06/21 06:12:38;;;;;;;15.02;3.38;;;13.30;99.90;;;;;;5067451;28;20031;-80
2022/06/21 06:15:12;;;;;;;14.30;2.90;;;13.40;99.90;;;;;;5058171;28;20029;-80
2022/06/21 06:17:59;;;;;;;20.85;3.58;;;13.40;99.90;;;;;;5052289;28;20542;-80
2022/06/21 06:20:45;;;;;;;18.20;3.17;;;13.50;99.90;;;;;;5068693;28;20028;-80
2022/06/21 06:23:15;;;;;;;21.33;4.30;;;13.60;99.90;;;;;;5062817;28;20033;-80
2022/06/21 06:25:52;;;;;;;14.45;2.65;;;13.60;99.90;;;;;;5070140;28;20028;-80
2022/06/21 06:28:22;;;;;;;14.38;3.33;;;13.60;99.90;;;;;;5071247;28;20036;-80
2022/06/21 06:31:03;;;;;;;20.80;3.90;;;13.60;99.90;;;;;;5074709;28;20070;-80
2022/06/21 06:33:36;;;;;;;21.80;3.80;;;13.60;99.90;;;;;;5070170;28;20029;-80
2022/06/21 06:36:08;;;;;;;22.25;3.60;;;13.60;99.90;;;;;;5064886;28;20428;-80
2022/06/21 06:38:34;;;;;;;14.60;2.90;;;13.60;99.90;;;;;;5070492;28;20040;-80
2022/06/21 06:41:16;;;;;;;24.75;3.53;;;13.70;99.90;;;;;;5074206;28;20041;-80
2022/06/21 06:43:48;;;;;;;25.58;3.60;;;13.80;99.90;;;;;;5070382;28;20043;-80
2022/06/21 06:46:32;;;;;;;18.42;2.85;;;13.80;99.90;;;;;;5072751;28;20028;-80
2022/06/21 06:49:16;;;;;;;17.25;2.95;;;14.00;99.90;;;;;;5072176;28;20117;-81
2022/06/21 06:51:58;;;;;;;17.05;3.05;;;14.00;99.90;;;;;;5070876;28;20020;-80
2022/06/21 06:54:37;;;;;;;22.58;3.50;;;14.10;99.90;;;;;;5071962;28;20032;-80
2022/06/21 06:57:17;;;;;;;14.30;3.10;;;14.10;99.90;;;;;;5071164;28;20029;-80
2022/06/21 06:59:44;;;;;;;14.55;2.70;;;14.20;99.90;;;;;;5071977;28;20472;-80
2022/06/21 07:02:18;;;;;;;8.75;2.53;;;14.30;99.90;;;;;;5072691;28;20029;-80
2022/06/21 07:04:50;;;;;;;19.60;2.92;;;14.30;99.90;;;;;;5071164;28;20137;-80
2022/06/21 07:07:29;;;;;;;21.13;3.08;;;14.30;99.90;;;;;;5070969;28;20235;-80
2022/06/21 07:10:02;;;;;;;19.90;3.53;;;14.40;99.90;;;;;;5072191;28;20025;-81
2022/06/21 07:12:30;;;;;;;13.87;2.80;;;14.40;99.90;;;;;;5071504;28;20035;-80
2022/06/21 07:14:57;;;;;;;11.07;3.00;;;14.50;99.90;;;;;;5071445;28;20024;-80
2022/06/21 07:17:29;;;;;;;17.27;2.83;;;14.50;99.90;;;;;;5067444;28;20119;-80
2022/06/21 07:19:56;;;;;;;9.68;2.75;;;14.50;99.90;;;;;;5069420;28;20047;-80
2022/06/21 07:22:25;;;;;;;16.65;3.05;;;14.50;99.90;;;;;;5071563;28;20013;-81
2022/06/21 07:25:13;;;;;;;14.77;2.25;;;14.60;99.90;;;;;;5069531;28;20028;-80
2022/06/21 07:27:42;;;;;;;16.00;2.80;;;14.60;99.90;;;;;;5067451;28;20071;-80
2022/06/21 07:30:12;;;;;;;15.60;2.78;;;14.60;99.90;;;;;;5072317;28;20060;-80
2022/06/21 07:32:42;;;;;;;17.25;2.53;;;14.70;99.90;;;;;;5071083;28;20016;-80
2022/06/21 07:35:16;;;;;;;13.60;3.00;;;14.80;99.90;;;;;;5072195;28;20047;-80
2022/06/21 07:37:52;;;;;;;13.77;3.63;;;14.80;99.90;;;;;;5069151;28;20464;-80
2022/06/21 07:40:32;;;;;;;16.92;2.67;;;15.00;99.90;;;;;;5070071;28;20024;-80
2022/06/21 07:43:13;;;;;;;12.25;2.38;;;15.00;99.90;;;;;;5071823;28;20032;-80
2022/06/21 07:46:01;;;;;;;11.95;2.30;;;15.00;99.90;;;;;;5069993;28;20036;-80
2022/06/21 07:48:36;;;;;;;15.02;2.33;;;15.10;99.90;;;;;;5062944;28;20024;-80
2022/06/21 07:51:09;;;;;;;10.48;2.30;;;15.10;99.90;;;;;;5072526;28;20024;-81
2022/06/21 07:53:44;;;;;;;11.30;2.42;;;15.10;99.90;;;;;;5066107;28;20383;-80
2022/06/21 07:56:22;;;;;;;10.38;2.22;;;15.00;99.90;;;;;;5071074;28;20056;-80
2022/06/21 07:58:56;;;;;;;12.98;2.92;;;15.00;99.90;;;;;;5069649;28;20480;-80
2022/06/21 08:07:43;;;;;;;6.80;2.47;;;15.00;99.90;;;;;;5071162;28;20565;-82
2022/06/21 08:10:41;;;;;;;15.40;2.50;;;14.90;99.90;;;;;;5060053;28;20033;-81
2022/06/21 08:13:06;;;;;;;10.77;2.13;;;15.00;99.90;;;;;;5070661;28;20074;-81
2022/06/21 08:15:38;;;;;;;10.00;2.10;;;15.00;99.90;;;;;;5065549;28;20020;-81
2022/06/21 08:18:29;;;;;;;8.30;2.60;;;15.10;99.90;;;;;;5070846;28;20066;-81
2022/06/21 08:21:09;;;;;;;10.48;2.08;;;15.10;99.90;;;;;;5064576;28;20039;-81
2022/06/21 08:24:05;;;;;;;12.85;2.60;;;15.10;99.90;;;;;;5055035;28;20036;-82
2022/06/21 08:26:40;;;;;;;12.02;2.53;;;15.30;99.90;;;;;;5063284;28;20110;-81
2022/06/21 08:29:17;;;;;;;13.10;3.33;;;15.50;99.90;;;;;;5068798;28;20034;-82
2022/06/21 08:31:49;;;;;;;11.23;2.63;;;15.60;99.90;;;;;;5064566;28;20158;-80
2022/06/21 08:34:38;;;;;;;12.88;2.60;;;15.60;99.90;;;;;;5071475;28;20396;-81
2022/06/21 08:37:21;;;;;;;5.90;1.92;;;15.70;99.90;;;;;;5072718;28;20043;-81
2022/06/21 08:40:01;;;;;;;10.40;1.95;;;15.80;99.90;;;;;;5072271;28;20491;-80
2022/06/21 08:42:45;;;;;;;11.15;2.53;;;15.70;99.90;;;;;;5063796;28;20135;-81
2022/06/21 08:45:46;;;;;;;11.10;2.67;;;15.80;99.90;;;;;;5058215;28;20112;-81
2022/06/21 08:48:36;;;;;;;13.45;2.63;;;15.80;99.90;;;;;;5071584;28;20098;-81
2022/06/21 08:51:16;;;;;;;9.70;2.67;;;15.90;99.90;;;;;;5067122;28;20052;-81
2022/06/21 08:53:51;;;;;;;11.23;2.38;;;16.00;99.90;;;;;;5065454;28;20079;-80
2022/06/21 08:56:34;;;;;;;14.63;3.42;;;16.00;99.90;;;;;;5064049;28;20127;-81
2022/06/21 08:59:09;;;;;;;10.07;2.25;;;15.90;99.90;;;;;;5073954;28;20044;-80
2022/06/21 09:01:59;;;;;;;15.25;2.08;;;16.00;99.90;;;;;;5069524;28;20082;-81
2022/06/21 09:05:06;;;;;;;9.80;2.15;;;16.20;99.90;;;;;;5075912;28;20024;-81
2022/06/21 09:07:54;;;;;;;13.43;2.38;;;16.30;99.90;;;;;;5056101;28;20071;-82
2022/06/21 09:10:47;;;;;;;7.90;2.13;;;16.50;99.90;;;;;;5080234;28;20074;-85
2022/06/21 09:13:38;;;;;;;8.82;2.42;;;16.50;99.90;;;;;;5077979;28;20531;-83
2022/06/21 09:16:17;;;;;;;11.68;2.42;;;16.50;99.90;;;;;;5062864;28;20026;-83
2022/06/21 09:19:05;;;;;;;9.93;2.35;;;16.60;99.90;;;;;;5068129;28;20017;-82
2022/06/21 09:21:53;;;;;;;9.55;2.03;;;16.70;99.90;;;;;;5071342;28;20434;-83
2022/06/21 09:24:39;;;;;;;12.02;2.53;;;16.80;99.90;;;;;;5069646;28;20040;-84
2022/06/21 09:27:31;;;;;;;10.77;2.20;;;16.80;99.90;;;;;;5057822;28;20025;-83
2022/06/21 09:30:09;;;;;;;6.53;1.98;;;16.80;99.90;;;;;;5074103;28;20035;-84
2022/06/21 09:32:54;;;;;;;11.10;2.20;;;16.80;99.90;;;;;;5063589;28;20555;-83
2022/06/21 09:35:51;;;;;;;13.27;2.85;;;16.80;99.90;;;;;;5068446;28;20100;-83
2022/06/21 09:38:40;;;;;;;12.07;2.55;;;16.80;99.90;;;;;;5067409;28;20512;-82
2022/06/21 09:41:13;;;;;;;5.82;1.80;;;16.90;99.90;;;;;;5070546;28;20051;-83
2022/06/21 09:43:57;;;;;;;9.95;2.10;;;16.90;99.90;;;;;;5052362;28;20024;-88
2022/06/21 09:47:06;;;;;;;13.73;2.10;;;16.90;99.90;;;;;;5070151;28;20021;-89
2022/06/21 09:50:14;;;;;;;11.75;2.28;;;17.10;99.90;;;;;;5065716;28;20035;-88
2022/06/21 09:53:17;;;;;;;5.40;1.90;;;17.10;99.90;;;;;;5068560;28;20058;-88
2022/06/21 09:56:21;;;;;;;5.53;1.52;;;17.10;99.90;;;;;;5060745;28;20025;-89
2022/06/21 09:59:09;;;;;;;4.63;1.55;;;17.30;99.90;;;;;;5051307;28;20029;-87
2022/06/21 10:02:18;;;;;;;7.20;2.05;;;17.30;99.90;;;;;;5070032;28;20021;-88
2022/06/21 10:04:59;;;;;;;10.75;2.22;;;17.40;99.90;;;;;;5067483;28;20124;-88
2022/06/21 10:08:12;;;;;;;7.35;1.77;;;17.50;99.90;;;;;;5069048;28;20090;-88
2022/06/21 10:10:47;;;;;;;11.98;1.88;;;17.60;99.90;;;;;;5074134;28;20051;-87
2022/06/21 10:13:40;;;;;;;6.25;1.63;;;17.80;99.90;;;;;;5074377;28;20059;-89
2022/06/21 10:16:48;;;;;;;6.85;2.17;;;17.80;99.90;;;;;;5066947;28;20028;-88
2022/06/21 10:19:23;;;;;;;8.15;2.00;;;17.90;99.90;;;;;;4994717;28;20033;-89
2022/06/21 10:22:13;;;;;;;5.70;1.95;;;18.00;99.90;;;;;;4979271;28;20112;-90
2022/06/21 10:25:20;;;;;;;6.93;2.00;;;18.10;99.90;;;;;;5068071;28;20046;-89
2022/06/21 10:27:48;;;;;;;6.05;1.77;;;18.20;99.90;;;;;;5076264;28;20067;-89
2022/06/21 10:30:45;;;;;;;3.63;1.80;;;18.20;99.90;;;;;;5087055;28;20046;-89
2022/06/21 10:33:58;;;;;;;6.75;1.30;;;18.20;99.90;;;;;;5075725;28;20025;-89
2022/06/21 10:37:01;;;;;;;7.07;1.80;;;18.30;99.90;;;;;;5075257;28;20496;-90
2022/06/21 10:43:09;;;;;;;6.97;1.45;;;18.30;99.90;;;;;;5074816;28;20035;-90
2022/06/21 10:45:56;;;;;;;8.75;2.20;;;18.30;99.90;;;;;;5081946;28;20027;-89
2022/06/21 10:48:30;;;;;;;5.28;1.40;;;18.40;99.90;;;;;;5074180;28;20103;-90
2022/06/21 10:51:40;;;;;;;8.60;2.63;;;18.50;99.90;;;;;;5067861;28;20024;-89
2022/06/21 10:54:38;;;;;;;5.47;1.85;;;18.70;99.90;;;;;;5074193;28;20047;-89
2022/06/21 11:04:06;;;;;;;5.70;1.88;;;18.70;99.90;;;;;;5056071;28;20036;-89
2022/06/21 11:06:54;;;;;;;5.65;1.83;;;18.80;99.90;;;;;;5070444;28;20478;-88
2022/06/21 11:09:46;;;;;;;5.85;1.58;;;18.80;99.90;;;;;;5075275;28;20028;-89
2022/06/21 11:16:23;;;;;;;10.18;1.85;;;18.80;99.90;;;;;;5013557;28;20475;-87
2022/06/21 11:19:26;;;;;;;5.72;2.30;;;18.80;99.90;;;;;;5013565;28;20541;-88
2022/06/21 11:22:29;;;;;;;2.35;1.50;;;18.90;99.90;;;;;;5054394;28;20393;-88
2022/06/21 11:25:34;;;;;;;8.35;1.48;;;19.00;99.90;;;;;;5054301;28;20027;-88
2022/06/21 11:28:31;;;;;;;8.55;1.98;;;19.10;99.90;;;;;;5053666;28;20374;-89
2022/06/21 11:30:56;;;;;;;3.58;1.10;;;19.10;99.90;;;;;;5055172;28;20028;-90
2022/06/21 11:33:46;;;;;;;8.07;1.88;;;19.20;99.90;;;;;;5055951;28;20017;-89
2022/06/21 11:36:31;;;;;;;3.65;1.23;;;19.20;99.90;;;;;;5065409;28;20013;-89
2022/06/21 11:39:24;;;;;;;6.95;1.80;;;19.20;99.90;;;;;;5073917;28;20028;-89
2022/06/21 11:42:06;;;;;;;10.13;2.00;;;19.30;99.90;;;;;;5070367;28;20542;-89
2022/06/21 11:45:09;;;;;;;10.68;1.67;;;19.30;99.90;;;;;;5069514;28;20017;-90
2022/06/21 11:48:25;;;;;;;7.32;1.38;;;19.40;99.90;;;;;;5053525;28;20037;-90
2022/06/21 11:51:10;;;;;;;4.95;1.35;;;19.40;99.90;;;;;;5049759;28;20036;-89
2022/06/21 11:59:59;;;;;;;9.88;1.60;;;19.60;99.90;;;;;;5077063;28;20055;-94
2022/06/21 12:02:58;;;;;;;3.15;1.38;;;19.60;99.90;;;;;;5074834;28;20023;-93
2022/06/21 12:05:49;;;;;;;14.20;1.70;;;19.70;99.90;;;;;;5071491;28;20099;-93
2022/06/21 12:08:45;;;;;;;3.42;1.33;;;19.70;99.90;;;;;;5073092;28;20097;-92
2022/06/21 12:11:18;;;;;;;6.97;1.88;;;19.80;99.90;;;;;;5081517;28;20028;-93
2022/06/21 12:14:10;;;;;;;7.32;1.30;;;19.90;99.90;;;;;;5093878;28;20020;-94
2022/06/21 12:16:39;;;;;;;6.97;1.55;;;20.00;99.90;;;;;;5083925;28;20059;-93
2022/06/21 12:19:13;;;;;;;4.60;1.27;;;20.10;99.90;;;;;;5073410;28;20025;-90
2022/06/21 12:25:01;;;;;;;6.85;1.83;;;20.20;99.90;;;;;;5079034;28;20028;-94
2022/06/21 12:30:50;;;;;;;6.18;1.50;;;20.20;99.90;;;;;;5075884;28;20059;-95
2022/06/21 12:33:25;;;;;;;9.38;2.25;;;20.20;99.90;;;;;;5076343;28;20024;-96
2022/06/21 12:39:54;;;;;;;7.55;1.83;;;20.30;97.60;;;;;;5077010;28;20055;-94
2022/06/21 12:42:20;;;;;;;;;;;20.40;99.00;;;;;;5077356;28;20444;-93
2022/06/21 12:45:34;;;;;;;3.83;1.38;;;20.30;97.00;;;;;;5073451;28;20003;-93
2022/06/21 12:48:43;;;;;;;12.98;1.95;;;20.30;99.90;;;;;;5053239;28;20036;-94
2022/06/21 12:51:44;;;;;;;1.73;1.00;;;20.40;97.40;;;;;;5067085;28;20385;-93
2022/06/21 12:54:14;;;;;;;13.32;1.85;;;20.40;96.70;;;;;;5063233;28;20025;-92
2022/06/21 12:57:30;;;;;;;4.32;1.52;;;20.40;96.10;;;;;;5053778;28;20461;-91
2022/06/21 13:00:13;;;;;;;4.45;1.70;;;20.40;96.50;;;;;;5060181;28;20028;-93
2022/06/21 13:03:01;;;;;;;10.00;1.42;;;20.40;97.60;;;;;;5075957;28;20023;-93
2022/06/21 13:05:35;;;;;;;7.30;1.40;;;20.50;98.90;;;;;;5052419;28;20056;-92
2022/06/21 13:08:43;;;;;;;7.63;1.92;;;20.50;95.70;;;;;;5058703;28;20511;-91
2022/06/21 13:11:37;;;;;;;5.07;1.75;;;20.50;97.40;;;;;;5048489;28;20059;-92
2022/06/21 13:14:33;;;;;;;3.95;1.25;;;20.50;96.50;;;;;;5059989;28;20028;-90
2022/06/21 13:17:04;;;;;;;6.13;1.33;;;20.50;98.60;;;;;;5076712;28;20017;-89
2022/06/21 13:19:40;;;;;;;9.85;1.75;;;20.70;96.80;;;;;;5081757;28;20024;-89
2022/06/21 13:22:19;;;;;;;;;;;20.70;97.00;;;;;;5085239;28;20472;-88
2022/06/21 13:24:51;;;;;;;4.05;1.50;;;20.70;95.80;;;;;;5080076;28;19915;-89
2022/06/21 13:27:45;;;;;;;5.57;1.55;;;20.70;93.00;;;;;;5067639;28;20028;-88
2022/06/21 13:30:40;;;;;;;5.00;1.45;;;20.70;95.40;;;;;;5063922;28;20432;-89
2022/06/21 13:33:26;;;;;;;6.97;1.33;;;20.70;93.40;;;;;;5057046;28;20053;-88
2022/06/21 13:36:32;;;;;;;8.73;1.95;;;20.70;92.40;;;;;;5071665;28;20116;-88
2022/06/21 13:39:09;;;;;;;;;;;20.70;91.70;;;;;;5073511;28;20417;-88
2022/06/21 13:45:24;;;;;;;8.77;2.00;;;20.60;91.60;;;;;;5090529;28;20086;-88
2022/06/21 13:48:05;;;;;;;5.55;1.05;;;20.60;93.40;;;;;;5091684;28;20110;-88
2022/06/21 13:51:23;;;;;;;4.95;1.67;;;20.50;96.40;;;;;;5079170;28;20415;-88
2022/06/21 13:53:59;;;;;;;7.68;1.95;;;20.50;95.30;;;;;;5072623;28;20025;-87
2022/06/21 13:56:27;;;;;;;2.65;1.25;;;20.50;92.60;;;;;;5071094;28;20028;-87
2022/06/21 13:59:01;;;;;;;4.15;1.17;;;20.40;94.00;;;;;;5071189;28;20052;-87
2022/06/21 14:01:38;;;;;;;3.97;1.27;;;20.40;95.20;;;;;;5068446;28;20021;-88
2022/06/21 14:04:12;;;;;;;6.18;1.50;;;20.50;94.80;;;;;;5066640;28;20676;-87
2022/06/21 14:07:01;;;;;;;8.90;1.40;;;20.50;94.20;;;;;;5067782;28;20082;-87
2022/06/21 14:09:45;;;;;;;6.88;1.40;;;20.60;92.50;;;;;;5068473;28;20302;-87
2022/06/21 14:12:15;;;;;;;5.65;1.45;;;20.60;94.10;;;;;;5072014;28;20063;-87
2022/06/21 14:15:03;;;;;;;4.68;1.70;;;20.70;96.30;;;;;;5072481;28;20021;-87
2022/06/21 14:17:39;;;;;;;5.78;1.20;;;20.70;97.10;;;;;;5068480;28;20032;-87
2022/06/21 14:20:07;;;;;;;6.63;1.80;;;20.80;96.80;;;;;;5070983;28;20388;-86
2022/06/21 14:22:59;;;;;;;10.20;1.50;;;20.80;96.10;;;;;;5066560;28;20029;-86
2022/06/21 14:26:07;;;;;;;6.72;1.40;;;20.90;90.70;;;;;;5053025;28;20032;-87
2022/06/21 14:28:48;;;;;;;6.28;1.55;;;20.90;91.40;;;;;;5074887;28;20024;-87
2022/06/21 14:31:33;;;;;;;6.30;1.27;;;20.90;92.80;;;;;;5092392;28;20369;-87